createdAt,value
2017-01-04T00:00:30.784Z,300
2017-01-04T00:01:30.903Z,300
2017-01-04T00:02:30.990Z,301
2017-01-04T00:03:31.130Z,301
2017-01-04T00:04:31.249Z,302
2017-01-04T00:05:31.376Z,302
2017-01-04T00:06:31.506Z,303
2017-01-04T00:07:31.593Z,303
2017-01-04T00:08:31.663Z,303
2017-01-04T00:09:31.747Z,303
2017-01-04T00:10:31.864Z,304
2017-01-04T00:11:32.096Z,306
2017-01-04T00:12:32.203Z,308
2017-01-04T00:13:32.361Z,310
2017-01-04T00:14:32.489Z,310
2017-01-04T00:15:32.617Z,311
2017-01-04T00:16:32.704Z,311
2017-01-04T00:17:32.824Z,312
2017-01-04T00:18:32.910Z,308
2017-01-04T00:19:33.001Z,311
2017-01-04T00:20:33.071Z,312
2017-01-04T00:21:33.183Z,314
2017-01-04T00:22:33.301Z,316
2017-01-04T00:23:33.369Z,317
2017-01-04T00:24:33.489Z,317
2017-01-04T00:25:33.607Z,319
2017-01-04T00:26:33.727Z,319
2017-01-04T00:27:33.822Z,318
2017-01-04T00:28:33.915Z,320
2017-01-04T00:29:34.042Z,320
2017-01-04T00:30:34.153Z,321
2017-01-04T00:31:34.280Z,322
2017-01-04T00:32:34.482Z,322
2017-01-04T00:33:34.572Z,322
2017-01-04T00:34:34.712Z,323
2017-01-04T00:35:34.939Z,324
2017-01-04T00:36:35.060Z,326
2017-01-04T00:37:35.147Z,333
2017-01-04T00:38:35.238Z,332
2017-01-04T00:39:35.330Z,335
2017-01-04T00:40:35.423Z,339
2017-01-04T00:41:35.542Z,342
2017-01-04T00:42:35.613Z,348
2017-01-04T00:43:35.721Z,347
2017-01-04T00:44:35.813Z,353
2017-01-04T00:45:35.941Z,354
2017-01-04T00:46:36.052Z,355
2017-01-04T00:47:36.146Z,355
2017-01-04T00:48:36.208Z,357
2017-01-04T00:49:36.302Z,356
2017-01-04T00:50:36.401Z,357
2017-01-04T00:51:36.502Z,356
2017-01-04T00:52:36.603Z,358
2017-01-04T00:53:36.734Z,358
2017-01-04T00:54:36.840Z,360
2017-01-04T00:55:37.045Z,362
2017-01-04T00:56:37.125Z,364
2017-01-04T00:57:37.245Z,363
2017-01-04T00:58:37.347Z,364
2017-01-04T00:59:37.429Z,365
2017-01-04T01:00:37.532Z,365
2017-01-04T01:01:37.652Z,364
2017-01-04T01:02:37.744Z,363
2017-01-04T01:03:37.906Z,365
2017-01-04T01:04:38.029Z,368
2017-01-04T01:05:38.158Z,399
2017-01-04T01:06:38.231Z,394
2017-01-04T01:07:38.351Z,431
2017-01-04T01:08:38.442Z,445
2017-01-04T01:09:38.601Z,453
2017-01-04T01:10:38.728Z,465
2017-01-04T01:11:39.389Z,467
2017-01-04T01:12:39.047Z,466
2017-01-04T01:13:39.146Z,473
2017-01-04T01:14:39.217Z,480
2017-01-04T01:15:39.314Z,487
2017-01-04T01:16:39.398Z,490
2017-01-04T01:17:39.482Z,505
2017-01-04T01:18:39.556Z,508
2017-01-04T01:19:39.657Z,514
2017-01-04T01:20:39.726Z,515
2017-01-04T01:21:39.837Z,517
2017-01-04T01:22:39.938Z,512
2017-01-04T01:23:40.058Z,527
2017-01-04T01:24:40.132Z,522
2017-01-04T01:25:40.210Z,523
2017-01-04T01:26:40.338Z,528
2017-01-04T01:27:40.449Z,528
2017-01-04T01:28:40.535Z,526
2017-01-04T01:29:40.675Z,528
2017-01-04T01:30:40.764Z,529
2017-01-04T01:31:40.840Z,530
2017-01-04T01:32:40.958Z,529
2017-01-04T01:33:41.061Z,528
2017-01-04T01:34:41.181Z,525
2017-01-04T01:35:41.272Z,526
2017-01-04T01:36:41.347Z,524
2017-01-04T01:37:41.462Z,525
2017-01-04T01:38:41.583Z,517
2017-01-04T01:39:41.654Z,517
2017-01-04T01:40:41.762Z,519
2017-01-04T01:41:41.827Z,518
2017-01-04T01:42:41.944Z,520
2017-01-04T01:43:42.017Z,521
2017-01-04T01:44:42.117Z,528
2017-01-04T01:45:42.214Z,527
2017-01-04T01:46:42.353Z,527
2017-01-04T01:47:42.460Z,527
2017-01-04T01:48:42.548Z,528
2017-01-04T01:49:42.652Z,526
2017-01-04T01:50:42.920Z,524
2017-01-04T01:51:43.009Z,524
2017-01-04T01:52:43.218Z,523
2017-01-04T01:53:43.307Z,521
2017-01-04T01:54:43.503Z,520
2017-01-04T01:55:43.617Z,517
2017-01-04T01:56:43.717Z,514
2017-01-04T01:57:43.798Z,513
2017-01-04T01:58:43.877Z,512
2017-01-04T01:59:43.981Z,511
2017-01-04T02:00:44.086Z,509
2017-01-04T02:01:44.187Z,506
2017-01-04T02:02:44.282Z,504
2017-01-04T02:03:44.429Z,503
2017-01-04T02:04:44.563Z,500
2017-01-04T02:05:44.690Z,499
2017-01-04T02:06:44.788Z,498
2017-01-04T02:07:44.900Z,496
2017-01-04T02:08:45.075Z,495
2017-01-04T02:09:45.183Z,494
2017-01-04T02:10:45.315Z,494
2017-01-04T02:11:45.393Z,497
2017-01-04T02:12:45.516Z,502
2017-01-04T02:13:45.599Z,505
2017-01-04T02:14:45.713Z,511
2017-01-04T02:15:45.814Z,552
2017-01-04T02:16:45.896Z,545
2017-01-04T02:17:46.038Z,518
2017-01-04T02:18:46.140Z,516
2017-01-04T02:19:46.252Z,515
2017-01-04T02:20:46.395Z,520
2017-01-04T02:21:46.480Z,558
2017-01-04T02:22:46.645Z,545
2017-01-04T02:23:46.753Z,516
2017-01-04T02:24:46.881Z,559
2017-01-04T02:25:46.985Z,565
2017-01-04T02:26:47.921Z,570
2017-01-04T02:27:48.056Z,565
2017-01-04T02:28:48.257Z,566
2017-01-04T02:29:48.428Z,555
2017-01-04T02:30:48.522Z,559
2017-01-04T02:31:48.665Z,576
2017-01-04T02:32:48.774Z,570
2017-01-04T02:33:48.887Z,589
2017-01-04T02:34:48.956Z,581
2017-01-04T02:35:49.050Z,585
2017-01-04T02:36:49.195Z,582
2017-01-04T02:37:49.266Z,582
2017-01-04T02:38:49.401Z,576
2017-01-04T02:39:49.486Z,570
2017-01-04T02:40:49.586Z,564
2017-01-04T02:41:49.657Z,584
2017-01-04T02:42:49.755Z,581
2017-01-04T02:43:49.849Z,583
2017-01-04T02:44:49.920Z,585
2017-01-04T02:45:50.050Z,582
2017-01-04T02:46:50.235Z,574
2017-01-04T02:47:50.434Z,506
2017-01-04T02:48:50.533Z,500
2017-01-04T02:49:50.627Z,493
2017-01-04T02:50:50.726Z,466
2017-01-04T02:51:50.827Z,468
2017-01-04T02:52:50.913Z,469
2017-01-04T02:53:51.030Z,456
2017-01-04T02:54:51.098Z,461
2017-01-04T02:55:51.179Z,464
2017-01-04T02:56:51.277Z,467
2017-01-04T02:57:51.354Z,455
2017-01-04T02:58:51.446Z,456
2017-01-04T02:59:51.522Z,450
2017-01-04T03:00:51.606Z,447
2017-01-04T03:01:51.711Z,452
2017-01-04T03:02:51.814Z,452
2017-01-04T03:03:51.933Z,454
2017-01-04T03:04:52.100Z,452
2017-01-04T03:05:52.198Z,448
2017-01-04T03:06:52.300Z,437
2017-01-04T03:07:52.413Z,438
2017-01-04T03:08:52.529Z,439
2017-01-04T03:09:52.595Z,436
2017-01-04T03:10:52.678Z,434
2017-01-04T03:11:52.800Z,436
2017-01-04T03:12:52.915Z,431
2017-01-04T03:13:52.999Z,527
2017-01-04T03:14:53.062Z,527
2017-01-04T03:15:53.186Z,536
2017-01-04T03:16:53.291Z,540
2017-01-04T03:17:53.390Z,551
2017-01-04T03:18:53.515Z,553
2017-01-04T03:19:53.597Z,562
2017-01-04T03:20:53.726Z,569
2017-01-04T03:21:53.803Z,573
2017-01-04T03:22:53.906Z,581
2017-01-04T03:23:54.020Z,585
2017-01-04T03:24:54.086Z,588
2017-01-04T03:25:54.206Z,587
2017-01-04T03:26:54.327Z,597
2017-01-04T03:27:54.396Z,593
2017-01-04T03:28:54.479Z,599
2017-01-04T03:29:54.594Z,596
2017-01-04T03:30:54.771Z,591
2017-01-04T03:31:54.884Z,592
2017-01-04T03:32:55.050Z,580
2017-01-04T03:33:55.129Z,566
2017-01-04T03:34:55.288Z,567
2017-01-04T03:35:55.399Z,550
2017-01-04T03:36:55.479Z,558
2017-01-04T03:37:55.580Z,576
2017-01-04T03:38:55.701Z,574
2017-01-04T03:39:55.837Z,572
2017-01-04T03:40:55.923Z,572
2017-01-04T03:41:56.083Z,570
2017-01-04T03:42:56.144Z,579
2017-01-04T03:43:56.207Z,583
2017-01-04T03:44:56.297Z,575
2017-01-04T03:45:56.373Z,583
2017-01-04T03:46:56.459Z,587
2017-01-04T03:47:56.584Z,584
2017-01-04T03:48:56.683Z,592
2017-01-04T03:49:56.764Z,591
2017-01-04T03:50:56.873Z,585
2017-01-04T03:51:56.957Z,587
2017-01-04T03:52:57.110Z,587
2017-01-04T03:53:57.189Z,579
2017-01-04T03:54:57.255Z,584
2017-01-04T03:55:57.347Z,583
2017-01-04T03:56:57.455Z,574
2017-01-04T03:57:57.525Z,570
2017-01-04T03:58:57.605Z,568
2017-01-04T03:59:57.695Z,550
2017-01-04T04:00:57.808Z,561
2017-01-04T04:01:57.981Z,544
2017-01-04T04:02:58.070Z,555
2017-01-04T04:03:58.205Z,554
2017-01-04T04:04:58.330Z,548
2017-01-04T04:05:58.449Z,545
2017-01-04T04:06:58.545Z,580
2017-01-04T04:07:58.652Z,560
2017-01-04T04:08:59.501Z,564
2017-01-04T04:09:59.604Z,561
2017-01-04T04:10:59.709Z,566
2017-01-04T04:11:59.817Z,572
2017-01-04T04:12:59.888Z,576
2017-01-04T04:13:59.963Z,574
2017-01-04T04:15:00.050Z,578
2017-01-04T04:16:00.137Z,586
2017-01-04T04:17:00.243Z,582
2017-01-04T04:18:00.354Z,584
2017-01-04T04:19:00.595Z,595
2017-01-04T04:20:00.726Z,591
2017-01-04T04:21:00.801Z,595
2017-01-04T04:22:00.963Z,598
2017-01-04T04:23:01.101Z,608
2017-01-04T04:24:01.197Z,601
2017-01-04T04:25:01.359Z,603
2017-01-04T04:26:01.466Z,591
2017-01-04T04:27:01.551Z,565
2017-01-04T04:28:01.628Z,592
2017-01-04T04:29:01.687Z,563
2017-01-04T04:30:01.782Z,544
2017-01-04T04:31:01.878Z,536
2017-01-04T04:32:01.973Z,524
2017-01-04T04:33:02.081Z,531
2017-01-04T04:34:02.211Z,542
2017-01-04T04:35:02.307Z,545
2017-01-04T04:36:02.439Z,545
2017-01-04T04:37:02.585Z,551
2017-01-04T04:38:02.670Z,554
2017-01-04T04:39:02.755Z,552
2017-01-04T04:40:02.827Z,564
2017-01-04T04:41:02.960Z,574
2017-01-04T04:42:03.029Z,567
2017-01-04T04:43:03.150Z,572
2017-01-04T04:44:03.273Z,580
2017-01-04T04:45:03.397Z,585
2017-01-04T04:46:03.484Z,590
2017-01-04T04:47:03.579Z,590
2017-01-04T04:48:03.668Z,591
2017-01-04T04:49:03.787Z,587
2017-01-04T04:50:03.922Z,578
2017-01-04T04:51:04.088Z,579
2017-01-04T04:52:04.163Z,575
2017-01-04T04:53:04.289Z,572
2017-01-04T04:54:04.439Z,557
2017-01-04T04:55:04.548Z,540
2017-01-04T04:56:04.668Z,551
2017-01-04T04:57:04.799Z,550
2017-01-04T04:58:04.886Z,562
2017-01-04T04:59:04.967Z,567
2017-01-04T05:00:05.046Z,552
2017-01-04T05:01:06.019Z,538
2017-01-04T05:02:06.105Z,545
2017-01-04T05:03:06.182Z,501
2017-01-04T05:04:06.329Z,480
2017-01-04T05:05:06.470Z,483
2017-01-04T05:06:06.566Z,473
2017-01-04T05:07:06.661Z,484
2017-01-04T05:08:06.798Z,460
2017-01-04T05:09:06.900Z,471
2017-01-04T05:10:07.009Z,461
2017-01-04T05:11:07.088Z,463
2017-01-04T05:12:07.223Z,481
2017-01-04T05:13:07.334Z,495
2017-01-04T05:14:07.418Z,483
2017-01-04T05:15:07.507Z,495
2017-01-04T05:16:07.654Z,469
2017-01-04T05:17:07.773Z,481
2017-01-04T05:18:07.928Z,469
2017-01-04T05:19:08.025Z,481
2017-01-04T05:20:08.131Z,483
2017-01-04T05:21:08.254Z,479
2017-01-04T05:22:08.943Z,475
2017-01-04T05:23:09.148Z,463
2017-01-04T05:24:09.243Z,478
2017-01-04T05:25:09.343Z,444
2017-01-04T05:26:09.502Z,447
2017-01-04T05:27:09.571Z,433
2017-01-04T05:28:09.679Z,429
2017-01-04T05:29:09.763Z,434
2017-01-04T05:30:09.906Z,420
2017-01-04T05:31:10.060Z,414
2017-01-04T05:32:10.162Z,433
2017-01-04T05:33:10.287Z,435
2017-01-04T05:34:10.352Z,435
2017-01-04T05:35:10.501Z,416
2017-01-04T05:36:10.631Z,409
2017-01-04T05:37:10.740Z,402
2017-01-04T05:38:10.861Z,398
2017-01-04T05:39:10.963Z,392
2017-01-04T05:40:11.093Z,383
2017-01-04T05:41:11.240Z,392
2017-01-04T05:42:11.345Z,400
2017-01-04T05:43:11.505Z,401
2017-01-04T05:44:11.589Z,408
2017-01-04T05:45:11.691Z,401
2017-01-04T05:46:11.791Z,402
2017-01-04T05:47:11.915Z,397
2017-01-04T05:48:12.027Z,408
2017-01-04T05:49:12.104Z,411
2017-01-04T05:50:12.288Z,468
2017-01-04T05:51:12.373Z,469
2017-01-04T05:52:12.482Z,450
2017-01-04T05:53:12.555Z,446
2017-01-04T05:54:12.621Z,443
2017-01-04T05:55:12.809Z,431
2017-01-04T05:56:12.965Z,408
2017-01-04T05:57:13.061Z,434
2017-01-04T05:58:13.198Z,419
2017-01-04T05:59:13.290Z,419
2017-01-04T06:00:13.417Z,442
2017-01-04T06:01:13.523Z,387
2017-01-04T06:02:13.628Z,389
2017-01-04T06:03:13.715Z,390
2017-01-04T06:04:13.843Z,395
2017-01-04T06:05:13.943Z,403
2017-01-04T06:06:14.041Z,405
2017-01-04T06:07:14.190Z,398
2017-01-04T06:08:14.270Z,393
2017-01-04T06:09:14.356Z,388
2017-01-04T06:10:14.480Z,390
2017-01-04T06:11:14.610Z,391
2017-01-04T06:12:14.787Z,389
2017-01-04T06:13:14.938Z,385
2017-01-04T06:14:15.083Z,382
2017-01-04T06:15:15.151Z,379
2017-01-04T06:16:15.276Z,374
2017-01-04T06:17:15.375Z,371
2017-01-04T06:18:15.489Z,372
2017-01-04T06:19:15.560Z,371
2017-01-04T06:20:15.639Z,370
2017-01-04T06:21:15.748Z,368
2017-01-04T06:22:15.846Z,367
2017-01-04T06:23:15.946Z,367
2017-01-04T06:24:16.030Z,369
2017-01-04T06:25:16.138Z,367
2017-01-04T06:26:16.284Z,367
2017-01-04T06:27:16.391Z,367
2017-01-04T06:28:16.463Z,366
2017-01-04T06:29:16.525Z,368
2017-01-04T06:30:16.612Z,378
2017-01-04T06:31:16.708Z,397
2017-01-04T06:32:16.807Z,410
2017-01-04T06:33:16.874Z,416
2017-01-04T06:34:16.963Z,421
2017-01-04T06:35:17.059Z,416
2017-01-04T06:36:17.200Z,407
2017-01-04T06:37:17.278Z,402
2017-01-04T06:38:17.400Z,397
2017-01-04T06:39:17.458Z,395
2017-01-04T06:40:17.588Z,393
2017-01-04T06:41:17.705Z,392
2017-01-04T06:42:17.802Z,390
2017-01-04T06:43:17.922Z,388
2017-01-04T06:44:18.031Z,387
2017-01-04T06:45:18.148Z,387
2017-01-04T06:46:18.279Z,388
2017-01-04T06:47:18.388Z,381
2017-01-04T06:48:18.537Z,381
2017-01-04T06:49:18.611Z,391
2017-01-04T06:50:18.742Z,389
2017-01-04T06:51:18.866Z,386
2017-01-04T06:52:18.955Z,384
2017-01-04T06:53:19.050Z,382
2017-01-04T06:54:19.144Z,389
2017-01-04T06:55:19.261Z,379
2017-01-04T06:56:19.402Z,380
2017-01-04T06:57:19.527Z,378
2017-01-04T06:58:19.613Z,378
2017-01-04T06:59:19.743Z,379
2017-01-04T07:00:19.879Z,376
2017-01-04T07:01:19.947Z,374
2017-01-04T07:02:20.070Z,373
2017-01-04T07:03:20.192Z,372
2017-01-04T07:04:20.327Z,369
2017-01-04T07:05:20.410Z,373
2017-01-04T07:06:20.530Z,368
2017-01-04T07:07:20.645Z,367
2017-01-04T07:08:20.777Z,367
2017-01-04T07:09:20.911Z,367
2017-01-04T07:10:21.096Z,367
2017-01-04T07:11:21.193Z,368
2017-01-04T07:12:21.281Z,366
2017-01-04T07:13:21.402Z,366
2017-01-04T07:14:21.501Z,364
2017-01-04T07:15:21.651Z,365
2017-01-04T07:16:21.794Z,363
2017-01-04T07:17:21.935Z,364
2017-01-04T07:18:22.079Z,365
2017-01-04T07:19:22.155Z,365
2017-01-04T07:20:22.269Z,369
2017-01-04T07:21:22.348Z,377
2017-01-04T07:22:22.457Z,385
2017-01-04T07:23:23.542Z,399
2017-01-04T07:24:23.659Z,426
2017-01-04T07:25:23.787Z,449
2017-01-04T07:26:23.906Z,495
2017-01-04T07:27:23.984Z,518
2017-01-04T07:28:24.073Z,507
2017-01-04T07:29:24.165Z,501
2017-01-04T07:30:24.266Z,495
2017-01-04T07:31:24.427Z,485
2017-01-04T07:32:24.515Z,470
2017-01-04T07:33:24.655Z,457
2017-01-04T07:34:24.836Z,445
2017-01-04T07:35:24.911Z,433
2017-01-04T07:36:25.035Z,424
2017-01-04T07:37:25.124Z,419
2017-01-04T07:38:25.253Z,411
2017-01-04T07:39:25.385Z,405
2017-01-04T07:40:25.530Z,405
2017-01-04T07:41:25.654Z,402
2017-01-04T07:42:25.845Z,397
2017-01-04T07:43:25.935Z,396
2017-01-04T07:44:26.042Z,394
2017-01-04T07:45:26.132Z,391
2017-01-04T07:46:26.251Z,389
2017-01-04T07:47:26.339Z,388
2017-01-04T07:48:26.426Z,385
2017-01-04T07:49:26.568Z,384
2017-01-04T07:50:26.681Z,385
2017-01-04T07:51:26.773Z,384
2017-01-04T07:52:26.871Z,390
2017-01-04T07:53:27.025Z,388
2017-01-04T07:54:27.119Z,391
2017-01-04T07:55:27.252Z,414
2017-01-04T07:56:27.304Z,456
2017-01-04T07:57:27.504Z,483
2017-01-04T07:58:27.607Z,504
2017-01-04T07:59:27.714Z,500
2017-01-04T08:00:27.817Z,493
2017-01-04T08:01:27.943Z,484
2017-01-04T08:02:28.067Z,475
2017-01-04T08:03:28.193Z,475
2017-01-04T08:04:28.283Z,453
2017-01-04T08:05:28.530Z,441
2017-01-04T08:06:28.831Z,419
2017-01-04T08:07:28.918Z,420
2017-01-04T08:08:29.025Z,410
2017-01-04T08:09:29.207Z,380
2017-01-04T08:10:29.321Z,375
2017-01-04T08:11:29.406Z,372
2017-01-04T08:12:29.480Z,372
2017-01-04T08:13:29.654Z,370
2017-01-04T08:14:29.783Z,372
2017-01-04T08:15:29.875Z,372
2017-01-04T08:16:29.959Z,371
2017-01-04T08:17:30.058Z,487
2017-01-04T08:18:30.175Z,474
2017-01-04T08:19:30.287Z,467
2017-01-04T08:20:30.371Z,450
2017-01-04T08:21:30.457Z,414
2017-01-04T08:22:30.559Z,392
2017-01-04T08:23:30.651Z,379
2017-01-04T08:24:30.799Z,380
2017-01-04T08:25:30.930Z,393
2017-01-04T08:26:31.035Z,376
2017-01-04T08:27:31.139Z,373
2017-01-04T08:28:31.257Z,368
2017-01-04T08:29:31.373Z,368
2017-01-04T08:30:31.486Z,368
2017-01-04T08:31:31.627Z,367
2017-01-04T08:32:31.749Z,379
2017-01-04T08:33:31.898Z,381
2017-01-04T08:34:31.995Z,381
2017-01-04T08:35:32.094Z,381
2017-01-04T08:36:32.239Z,378
2017-01-04T08:37:32.319Z,374
2017-01-04T08:38:32.506Z,371
2017-01-04T08:39:32.621Z,370
2017-01-04T08:40:32.708Z,369
2017-01-04T08:41:32.788Z,369
2017-01-04T08:42:32.938Z,369
2017-01-04T08:43:33.131Z,367
2017-01-04T08:44:33.258Z,371
2017-01-04T08:45:33.373Z,368
2017-01-04T08:46:33.482Z,368
2017-01-04T08:47:33.557Z,369
2017-01-04T08:48:33.669Z,367
2017-01-04T08:49:33.770Z,365
2017-01-04T08:50:33.911Z,368
2017-01-04T08:51:34.000Z,362
2017-01-04T08:52:34.111Z,361
2017-01-04T08:53:34.217Z,359
2017-01-04T08:54:34.311Z,356
2017-01-04T08:55:34.418Z,355
2017-01-04T08:56:34.514Z,354
2017-01-04T08:57:34.615Z,353
2017-01-04T08:58:34.716Z,352
2017-01-04T08:59:34.833Z,351
2017-01-04T09:00:34.942Z,351
2017-01-04T09:01:35.027Z,351
2017-01-04T09:02:35.126Z,350
2017-01-04T09:03:35.195Z,349
2017-01-04T09:04:35.264Z,349
2017-01-04T09:05:35.383Z,349
2017-01-04T09:06:35.488Z,347
2017-01-04T09:07:35.607Z,348
2017-01-04T09:08:35.687Z,346
2017-01-04T09:09:35.760Z,345
2017-01-04T09:10:35.864Z,346
2017-01-04T09:11:35.938Z,345
2017-01-04T09:12:36.053Z,345
2017-01-04T09:13:36.157Z,346
2017-01-04T09:14:36.259Z,348
2017-01-04T09:15:36.389Z,347
2017-01-04T09:16:36.476Z,345
2017-01-04T09:17:36.579Z,341
2017-01-04T09:18:36.675Z,339
2017-01-04T09:19:36.773Z,339
2017-01-04T09:20:36.868Z,341
2017-01-04T09:21:36.969Z,343
2017-01-04T09:22:37.079Z,346
2017-01-04T09:23:37.266Z,349
2017-01-04T09:24:37.409Z,357
2017-01-04T09:25:37.480Z,367
2017-01-04T09:26:37.615Z,378
2017-01-04T09:27:37.725Z,370
2017-01-04T09:28:37.833Z,362
2017-01-04T09:29:37.970Z,358
2017-01-04T09:30:38.068Z,356
2017-01-04T09:31:38.177Z,354
2017-01-04T09:32:38.299Z,355
2017-01-04T09:33:38.397Z,355
2017-01-04T09:34:38.479Z,353
2017-01-04T09:35:38.604Z,355
2017-01-04T09:36:38.767Z,353
2017-01-04T09:37:38.905Z,353
2017-01-04T09:38:39.004Z,353
2017-01-04T09:39:39.063Z,409
2017-01-04T09:40:39.191Z,406
2017-01-04T09:41:39.391Z,398
2017-01-04T09:42:39.491Z,391
2017-01-04T09:43:39.617Z,393
2017-01-04T09:44:39.713Z,360
2017-01-04T09:45:39.806Z,354
2017-01-04T09:46:39.900Z,373
2017-01-04T09:47:39.997Z,452
2017-01-04T09:48:40.145Z,439
2017-01-04T09:49:40.345Z,385
2017-01-04T09:50:40.494Z,376
2017-01-04T09:51:40.575Z,350
2017-01-04T09:52:40.688Z,358
2017-01-04T09:53:40.756Z,368
2017-01-04T09:54:40.830Z,352
2017-01-04T09:55:41.003Z,345
2017-01-04T09:56:41.135Z,352
2017-01-04T09:57:41.300Z,342
2017-01-04T09:58:41.411Z,339
2017-01-04T09:59:41.518Z,334
2017-01-04T10:00:41.628Z,327
2017-01-04T10:01:41.695Z,327
2017-01-04T10:02:41.901Z,327
2017-01-04T10:03:41.984Z,330
2017-01-04T10:04:42.075Z,310
2017-01-04T10:05:42.166Z,306
2017-01-04T10:06:42.265Z,297
2017-01-04T10:07:42.431Z,286
2017-01-04T10:08:42.513Z,282
2017-01-04T10:09:42.631Z,281
2017-01-04T10:10:42.730Z,281
2017-01-04T10:11:42.803Z,281
2017-01-04T10:12:42.897Z,281
2017-01-04T10:13:43.018Z,281
2017-01-04T10:14:43.169Z,281
2017-01-04T10:15:43.252Z,280
2017-01-04T10:16:43.360Z,281
2017-01-04T10:17:43.494Z,281
2017-01-04T10:18:43.612Z,281
2017-01-04T10:19:43.697Z,282
2017-01-04T10:20:43.844Z,282
2017-01-04T10:21:43.915Z,283
2017-01-04T10:22:44.029Z,282
2017-01-04T10:23:44.143Z,283
2017-01-04T10:24:44.263Z,282
2017-01-04T10:25:44.451Z,283
2017-01-04T10:26:44.631Z,282
2017-01-04T10:27:44.788Z,282
2017-01-04T10:28:44.894Z,283
2017-01-04T10:29:45.141Z,282
2017-01-04T10:30:45.298Z,283
2017-01-04T10:31:45.405Z,283
2017-01-04T10:32:45.580Z,283
2017-01-04T10:33:45.673Z,283
2017-01-04T10:34:45.783Z,282
2017-01-04T10:35:45.868Z,283
2017-01-04T10:36:45.942Z,282
2017-01-04T10:37:46.029Z,282
2017-01-04T10:38:46.130Z,283
2017-01-04T10:39:46.233Z,282
2017-01-04T10:40:46.348Z,282
2017-01-04T10:41:46.531Z,282
2017-01-04T10:42:46.649Z,282
2017-01-04T10:43:46.808Z,282
2017-01-04T10:44:46.895Z,282
2017-01-04T10:45:47.020Z,283
2017-01-04T10:46:47.154Z,283
2017-01-04T10:47:47.275Z,282
2017-01-04T10:48:47.384Z,282
2017-01-04T10:49:47.513Z,282
2017-01-04T10:50:47.617Z,282
2017-01-04T10:51:47.689Z,282
2017-01-04T10:52:47.780Z,282
2017-01-04T10:53:47.856Z,282
2017-01-04T10:54:47.973Z,282
2017-01-04T10:55:48.080Z,282
2017-01-04T10:56:48.175Z,282
2017-01-04T10:57:48.290Z,281
2017-01-04T10:58:48.416Z,281
2017-01-04T10:59:48.521Z,282
2017-01-04T11:00:48.612Z,282
2017-01-04T11:01:49.473Z,282
2017-01-04T11:02:48.824Z,282
2017-01-04T11:03:49.012Z,282
2017-01-04T11:04:49.094Z,282
2017-01-04T11:05:49.182Z,282
2017-01-04T11:06:49.253Z,282
2017-01-04T11:07:49.393Z,282
2017-01-04T11:08:49.624Z,281
2017-01-04T11:09:49.729Z,282
2017-01-04T11:10:49.908Z,300
2017-01-04T11:11:50.001Z,327
2017-01-04T11:12:50.115Z,319
2017-01-04T11:13:50.187Z,314
2017-01-04T11:14:50.287Z,319
2017-01-04T11:15:50.389Z,317
2017-01-04T11:16:50.541Z,312
2017-01-04T11:17:50.669Z,307
2017-01-04T11:18:50.851Z,312
2017-01-04T11:19:50.940Z,370
2017-01-04T11:20:51.041Z,362
2017-01-04T11:21:51.132Z,345
2017-01-04T11:22:51.233Z,342
2017-01-04T11:23:51.367Z,333
2017-01-04T11:24:51.478Z,340
2017-01-04T11:25:51.583Z,341
2017-01-04T11:26:51.692Z,348
2017-01-04T11:27:51.850Z,394
2017-01-04T11:28:51.983Z,400
2017-01-04T11:29:52.097Z,396
2017-01-04T11:30:52.187Z,390
2017-01-04T11:31:52.311Z,374
2017-01-04T11:32:52.539Z,367
2017-01-04T11:33:52.623Z,360
2017-01-04T11:34:52.729Z,358
2017-01-04T11:35:52.805Z,347
2017-01-04T11:36:52.876Z,334
2017-01-04T11:37:52.988Z,320
2017-01-04T11:38:53.060Z,308
2017-01-04T11:39:53.161Z,303
2017-01-04T11:40:53.296Z,300
2017-01-04T11:41:53.383Z,296
2017-01-04T11:42:53.491Z,292
2017-01-04T11:43:53.607Z,289
2017-01-04T11:44:53.775Z,287
2017-01-04T11:45:53.910Z,286
2017-01-04T11:46:54.029Z,286
2017-01-04T11:47:54.121Z,285
2017-01-04T11:48:54.230Z,283
2017-01-04T11:49:54.337Z,281
2017-01-04T11:50:54.435Z,281
2017-01-04T11:51:54.538Z,281
2017-01-04T11:52:54.643Z,282
2017-01-04T11:53:54.715Z,281
2017-01-04T11:54:54.789Z,282
2017-01-04T11:55:55.004Z,282
2017-01-04T11:56:55.136Z,281
2017-01-04T11:57:55.295Z,281
2017-01-04T11:58:55.432Z,281
2017-01-04T11:59:55.568Z,281
2017-01-04T12:00:55.681Z,281
2017-01-04T12:01:55.867Z,281
2017-01-04T12:02:55.959Z,281
2017-01-04T12:03:56.082Z,281
2017-01-04T12:04:56.206Z,281
2017-01-04T12:05:56.330Z,281
2017-01-04T12:06:56.459Z,282
2017-01-04T12:07:56.550Z,281
2017-01-04T12:08:56.627Z,281
2017-01-04T12:09:56.793Z,281
2017-01-04T12:10:56.886Z,281
2017-01-04T12:11:57.005Z,281
2017-01-04T12:12:57.131Z,281
2017-01-04T12:13:57.233Z,281
2017-01-04T12:14:57.414Z,282
2017-01-04T12:15:57.560Z,281
2017-01-04T12:16:57.674Z,281
2017-01-04T12:17:57.784Z,281
2017-01-04T12:18:57.930Z,281
2017-01-04T12:19:58.024Z,281
2017-01-04T12:20:58.133Z,281
2017-01-04T12:21:58.272Z,282
2017-01-04T12:22:58.384Z,281
2017-01-04T12:23:58.470Z,281
2017-01-04T12:24:58.572Z,282
2017-01-04T12:25:58.688Z,281
2017-01-04T12:26:58.810Z,282
2017-01-04T12:27:58.922Z,281
2017-01-04T12:28:59.021Z,281
2017-01-04T12:29:59.129Z,281
2017-01-04T12:30:59.233Z,281
2017-01-04T12:31:59.352Z,282
2017-01-04T12:32:59.477Z,281
2017-01-04T12:33:59.566Z,283
2017-01-04T12:34:59.679Z,282
2017-01-04T12:35:59.794Z,281
2017-01-04T12:36:59.907Z,281
2017-01-04T12:38:00.006Z,281
2017-01-04T12:39:00.135Z,281
2017-01-04T12:40:00.300Z,282
2017-01-04T12:41:00.373Z,281
2017-01-04T12:42:00.530Z,282
2017-01-04T12:43:00.716Z,281
2017-01-04T12:44:00.950Z,281
2017-01-04T12:45:01.054Z,281
2017-01-04T12:46:01.134Z,281
2017-01-04T12:47:01.309Z,281
2017-01-04T12:48:01.410Z,282
2017-01-04T12:49:01.533Z,281
2017-01-04T12:50:01.620Z,281
2017-01-04T12:51:01.733Z,281
2017-01-04T12:52:01.854Z,281
2017-01-04T12:53:01.927Z,281
2017-01-04T12:54:01.996Z,281
2017-01-04T12:55:02.180Z,281
2017-01-04T12:56:02.294Z,281
2017-01-04T12:57:02.416Z,281
2017-01-04T12:58:02.503Z,281
2017-01-04T12:59:02.622Z,281
2017-01-04T13:00:02.720Z,281
2017-01-04T13:01:02.832Z,282
2017-01-04T13:02:02.908Z,281
2017-01-04T13:03:02.985Z,281
2017-01-04T13:04:03.069Z,282
2017-01-04T13:05:03.277Z,281
2017-01-04T13:06:03.367Z,281
2017-01-04T13:07:03.478Z,281
2017-01-04T13:08:03.580Z,281
2017-01-04T13:09:03.704Z,281
2017-01-04T13:10:03.801Z,281
2017-01-04T13:11:03.967Z,281
2017-01-04T13:12:04.057Z,281
2017-01-04T13:13:04.151Z,281
2017-01-04T13:14:04.232Z,281
2017-01-04T13:15:04.335Z,281
2017-01-04T13:16:04.430Z,281
2017-01-04T13:17:04.547Z,281
2017-01-04T13:18:04.646Z,281
2017-01-04T13:19:04.797Z,281
2017-01-04T13:20:04.890Z,281
2017-01-04T13:21:05.106Z,280
2017-01-04T13:22:05.219Z,281
2017-01-04T13:23:05.318Z,281
2017-01-04T13:24:05.423Z,281
2017-01-04T13:25:05.524Z,281
2017-01-04T13:26:05.618Z,281
2017-01-04T13:27:05.726Z,281
2017-01-04T13:28:05.819Z,281
2017-01-04T13:29:05.885Z,282
2017-01-04T13:30:06.040Z,281
2017-01-04T13:31:06.154Z,281
2017-01-04T13:32:06.247Z,281
2017-01-04T13:33:06.334Z,281
2017-01-04T13:34:06.420Z,281
2017-01-04T13:35:06.568Z,281
2017-01-04T13:36:06.644Z,281
2017-01-04T13:37:06.772Z,281
2017-01-04T13:38:06.890Z,281
2017-01-04T13:39:06.979Z,281
2017-01-04T13:40:07.117Z,281
2017-01-04T13:41:07.340Z,281
2017-01-04T13:42:07.456Z,281
2017-01-04T13:43:07.557Z,281
2017-01-04T13:44:07.655Z,281
2017-01-04T13:45:07.766Z,281
2017-01-04T13:46:07.891Z,281
2017-01-04T13:47:07.985Z,281
2017-01-04T13:48:08.122Z,281